createdAt,value
2022-08-26T00:00:21.677Z,19.02
2022-08-26T00:02:51.691Z,18.84
2022-08-26T00:05:25.412Z,19.37
2022-08-26T00:08:07.816Z,20.02
2022-08-26T00:10:44.526Z,20.07
2022-08-26T00:13:21.532Z,19.87
2022-08-26T00:15:59.676Z,19.59
2022-08-26T00:18:40.782Z,19.34
2022-08-26T00:21:11.484Z,19.15
2022-08-26T00:23:59.759Z,18.97
2022-08-26T00:26:40.204Z,18.80
2022-08-26T00:29:11.693Z,19.47
2022-08-26T00:31:45.199Z,20.03
2022-08-26T00:34:21.790Z,20.05
2022-08-26T00:37:09.015Z,19.83
2022-08-26T00:39:38.415Z,19.54
2022-08-26T00:42:08.712Z,19.30
2022-08-26T00:44:36.523Z,19.08
2022-08-26T00:47:09.191Z,18.89
2022-08-26T00:49:47.529Z,18.70
2022-08-26T00:52:30.745Z,18.54
2022-08-26T00:55:09.264Z,19.20
2022-08-26T00:57:42.611Z,19.82
2022-08-26T01:00:17.121Z,19.84
2022-08-26T01:02:48.029Z,19.63
2022-08-26T01:05:17.438Z,19.37
2022-08-26T01:07:47.288Z,19.11
2022-08-26T01:10:36.114Z,18.86
2022-08-26T01:13:10.362Z,18.64
2022-08-26T01:15:46.846Z,18.48
2022-08-26T01:18:14.788Z,18.31
2022-08-26T01:20:46.628Z,18.84
2022-08-26T01:23:15.209Z,19.46
2022-08-26T01:25:45.859Z,19.51
2022-08-26T01:28:18.993Z,19.32
2022-08-26T01:30:51.051Z,19.06
2022-08-26T01:33:26.980Z,18.80
2022-08-26T01:35:57.154Z,18.55
2022-08-26T01:38:28.047Z,18.35
2022-08-26T01:41:02.809Z,18.18
2022-08-26T01:43:44.869Z,18.73
2022-08-26T01:46:12.648Z,19.26
2022-08-26T01:48:42.955Z,19.33
2022-08-26T01:51:11.119Z,19.18
2022-08-26T01:53:41.760Z,18.97
2022-08-26T01:56:18.915Z,18.72
2022-08-26T01:59:03.616Z,18.46
2022-08-26T02:01:34.941Z,18.25
2022-08-26T02:04:12.002Z,18.09
2022-08-26T02:06:45.066Z,18.63
2022-08-26T02:09:41.130Z,19.17
2022-08-26T02:12:13.384Z,19.18
2022-08-26T02:15:13.543Z,18.91
2022-08-26T02:17:43.604Z,18.61
2022-08-26T02:20:16.479Z,18.34
2022-08-26T02:22:52.033Z,18.10
2022-08-26T02:25:47.958Z,17.88
2022-08-26T02:28:26.786Z,18.50
2022-08-26T02:30:55.617Z,18.95
2022-08-26T02:33:32.231Z,18.93
2022-08-26T02:36:02.967Z,18.72
2022-08-26T02:39:01.729Z,18.50
2022-08-26T02:41:29.627Z,18.27
2022-08-26T02:44:00.255Z,18.08
2022-08-26T02:46:37.627Z,17.86
2022-08-26T02:49:20.123Z,17.67
2022-08-26T02:51:49.737Z,18.25
2022-08-26T02:54:21.474Z,18.88
2022-08-26T02:56:48.969Z,18.92
2022-08-26T02:59:16.698Z,18.67
2022-08-26T03:01:51.061Z,18.38
2022-08-26T03:04:18.961Z,18.07
2022-08-26T03:06:52.886Z,17.85
2022-08-26T03:09:58.185Z,17.68
2022-08-26T03:12:25.875Z,17.49
2022-08-26T03:14:58.329Z,18.16
2022-08-26T03:17:26.960Z,18.67
2022-08-26T03:20:17.479Z,18.67
2022-08-26T03:22:48.807Z,18.43
2022-08-26T03:25:19.687Z,18.14
2022-08-26T03:27:50.020Z,17.90
2022-08-26T03:30:39.277Z,17.67
2022-08-26T03:33:18.098Z,17.50
2022-08-26T03:35:50.704Z,18.11
2022-08-26T03:38:28.576Z,18.69
2022-08-26T03:41:00.744Z,18.68
2022-08-26T03:43:52.031Z,18.48
2022-08-26T03:46:21.041Z,18.19
2022-08-26T03:48:53.732Z,17.92
2022-08-26T03:51:24.714Z,17.67
2022-08-26T03:53:55.336Z,17.45
2022-08-26T03:56:30.828Z,17.27
2022-08-26T03:59:02.487Z,17.81
2022-08-26T04:01:47.355Z,18.45
2022-08-26T04:04:24.683Z,18.52
2022-08-26T04:06:56.732Z,18.38
2022-08-26T04:09:27.687Z,18.21
2022-08-26T04:11:58.998Z,18.07
2022-08-26T04:15:19.852Z,17.94
2022-08-26T04:18:38.102Z,17.92
2022-08-26T04:22:36.167Z,19.10
2022-08-26T04:26:34.510Z,19.33
2022-08-26T04:30:10.833Z,19.17
2022-08-26T04:33:12.884Z,19.00
2022-08-26T04:35:50.144Z,18.95
2022-08-26T04:38:53.423Z,19.00
2022-08-26T04:41:34.956Z,19.04
2022-08-26T04:44:25.851Z,19.10
2022-08-26T04:47:07.961Z,19.98
2022-08-26T04:49:53.575Z,20.84
2022-08-26T04:52:48.235Z,21.15
2022-08-26T04:55:22.036Z,21.18
2022-08-26T04:58:13.357Z,21.26
2022-08-26T05:00:50.114Z,21.34
2022-08-26T05:03:31.186Z,21.44
2022-08-26T05:06:31.449Z,21.60
2022-08-26T05:09:21.835Z,21.77
2022-08-26T05:12:07.815Z,21.96
2022-08-26T05:14:53.574Z,22.18
2022-08-26T05:17:29.971Z,22.36
2022-08-26T05:20:04.082Z,22.59
2022-08-26T05:22:31.790Z,22.78
2022-08-26T05:24:59.582Z,22.95
2022-08-26T05:27:57.104Z,23.15
2022-08-26T05:30:33.330Z,23.40
2022-08-26T05:33:07.586Z,23.67
2022-08-26T05:36:00.341Z,23.99
2022-08-26T05:38:30.365Z,24.27
2022-08-26T05:41:01.079Z,24.52
2022-08-26T05:43:35.320Z,24.72
2022-08-26T05:46:07.086Z,24.86
2022-08-26T05:48:41.175Z,24.97
2022-08-26T05:51:17.300Z,25.22
2022-08-26T05:53:54.761Z,25.45
2022-08-26T05:56:38.937Z,25.77
2022-08-26T05:59:14.613Z,26.17
2022-08-26T06:01:50.213Z,26.41
2022-08-26T06:04:29.322Z,26.62
2022-08-26T06:07:03.389Z,26.99
2022-08-26T06:09:50.931Z,27.35
2022-08-26T06:12:25.428Z,27.71
2022-08-26T06:14:57.780Z,27.90
2022-08-26T06:17:31.326Z,28.11
2022-08-26T06:20:04.931Z,28.32
2022-08-26T06:23:03.243Z,28.52
2022-08-26T06:25:42.098Z,28.68
2022-08-26T06:28:10.904Z,28.79
2022-08-26T06:30:43.381Z,28.88
2022-08-26T06:33:12.126Z,28.89
2022-08-26T06:35:54.565Z,28.82
2022-08-26T06:38:44.575Z,28.80
2022-08-26T06:41:22.828Z,28.84
2022-08-26T06:43:53.559Z,28.89
2022-08-26T06:46:24.442Z,28.90
2022-08-26T06:48:54.233Z,28.98
2022-08-26T06:51:29.878Z,29.03
2022-08-26T06:54:23.888Z,28.93
2022-08-26T06:56:51.718Z,28.92
2022-08-26T06:59:22.452Z,28.92
2022-08-26T07:02:10.201Z,28.89
2022-08-26T07:04:44.271Z,28.95
2022-08-26T07:07:22.016Z,29.12
2022-08-26T07:10:15.167Z,29.19
2022-08-26T07:12:47.288Z,29.27
2022-08-26T07:15:17.061Z,29.34
2022-08-26T07:17:44.993Z,29.51
2022-08-26T07:20:12.593Z,29.65
2022-08-26T07:22:45.574Z,29.70
2022-08-26T07:25:13.207Z,29.73
2022-08-26T07:27:43.664Z,29.75
2022-08-26T07:30:16.317Z,29.91
2022-08-26T07:32:46.990Z,30.07
2022-08-26T07:35:14.506Z,30.16
2022-08-26T07:37:47.432Z,30.28
2022-08-26T07:40:26.130Z,30.41
2022-08-26T07:42:56.315Z,30.55
2022-08-26T07:45:24.171Z,30.63
2022-08-26T07:48:00.519Z,30.72
2022-08-26T07:50:49.403Z,30.74
2022-08-26T07:53:18.236Z,30.75
2022-08-26T07:55:49.499Z,30.87
2022-08-26T07:58:17.818Z,31.01
2022-08-26T08:00:48.284Z,31.04
2022-08-26T08:03:21.240Z,31.07
2022-08-26T08:06:02.964Z,31.24
2022-08-26T08:08:35.395Z,31.39
2022-08-26T08:11:02.808Z,31.45
2022-08-26T08:13:31.970Z,31.57
2022-08-26T08:16:01.782Z,31.82
2022-08-26T08:18:32.133Z,32.04
2022-08-26T08:21:21.368Z,32.19
2022-08-26T08:23:57.561Z,32.35
2022-08-26T08:26:41.532Z,32.51
2022-08-26T08:29:12.438Z,32.74
2022-08-26T08:31:59.862Z,32.89
2022-08-26T08:34:33.302Z,33.00
2022-08-26T08:37:04.397Z,33.08
2022-08-26T08:39:38.532Z,33.03
2022-08-26T08:42:30.923Z,33.05
2022-08-26T08:45:06.691Z,33.29
2022-08-26T08:47:56.506Z,33.53
2022-08-26T08:50:38.056Z,33.51
2022-08-26T08:53:25.278Z,33.46
2022-08-26T08:56:10.766Z,33.40
2022-08-26T08:59:01.743Z,33.49
2022-08-26T09:02:04.859Z,33.68
2022-08-26T09:05:21.968Z,33.78
2022-08-26T09:08:14.836Z,33.94
2022-08-26T09:10:59.625Z,34.07
2022-08-26T09:13:27.572Z,34.26
2022-08-26T09:16:16.250Z,34.37
2022-08-26T09:19:22.866Z,34.38
2022-08-26T09:21:58.842Z,34.24
2022-08-26T09:24:29.071Z,34.10
2022-08-26T09:26:58.346Z,33.68
2022-08-26T09:29:45.709Z,33.68
2022-08-26T09:32:24.993Z,33.73
2022-08-26T09:34:58.129Z,33.90
2022-08-26T09:37:36.024Z,34.11
2022-08-26T09:40:16.455Z,34.23
2022-08-26T09:43:11.023Z,34.08
2022-08-26T09:45:49.923Z,33.82
2022-08-26T09:48:43.647Z,33.59
2022-08-26T09:51:50.110Z,33.69
2022-08-26T09:54:25.180Z,34.08
2022-08-26T09:57:23.689Z,34.33
2022-08-26T09:59:57.398Z,34.45
2022-08-26T10:02:34.268Z,34.35
2022-08-26T10:05:09.528Z,34.21
2022-08-26T10:08:03.635Z,34.21
2022-08-26T10:10:38.413Z,34.27
2022-08-26T10:13:14.302Z,34.12
2022-08-26T10:15:49.994Z,34.13
2022-08-26T10:18:27.908Z,34.09
2022-08-26T10:21:09.967Z,34.25
2022-08-26T10:26:26.993Z,34.69
2022-08-26T10:29:01.582Z,34.75
2022-08-26T10:31:38.178Z,34.82
2022-08-26T10:34:08.990Z,34.82
2022-08-26T10:37:14.473Z,34.89
2022-08-26T10:39:46.169Z,34.70
2022-08-26T10:42:38.110Z,34.49
2022-08-26T10:45:22.293Z,34.43
2022-08-26T10:48:01.641Z,34.30
2022-08-26T10:50:47.487Z,34.23
2022-08-26T10:53:18.250Z,34.29
2022-08-26T10:56:00.518Z,34.31
2022-08-26T10:58:56.698Z,34.37
2022-08-26T11:01:59.399Z,34.46
2022-08-26T11:04:38.983Z,34.52
2022-08-26T11:07:36.818Z,34.51
2022-08-26T11:10:14.404Z,34.52
2022-08-26T11:12:49.601Z,34.68
2022-08-26T11:15:24.658Z,34.69
2022-08-26T11:17:52.009Z,34.79
2022-08-26T11:20:31.753Z,34.92
2022-08-26T11:23:14.566Z,35.16
2022-08-26T11:26:08.681Z,35.34
2022-08-26T11:28:40.018Z,35.36
2022-08-26T11:31:33.301Z,35.56
2022-08-26T11:34:07.208Z,35.95
2022-08-26T11:36:40.306Z,35.88
2022-08-26T11:39:36.528Z,35.63
2022-08-26T11:42:29.653Z,35.80
2022-08-26T11:44:58.102Z,35.94
2022-08-26T11:47:29.438Z,35.97
2022-08-26T11:50:08.533Z,35.95
2022-08-26T11:52:35.753Z,35.66
2022-08-26T11:55:12.268Z,35.63
2022-08-26T11:57:48.196Z,35.75
2022-08-26T12:00:26.029Z,35.78
2022-08-26T12:02:56.137Z,35.98
2022-08-26T12:05:31.183Z,36.04
2022-08-26T12:08:01.135Z,36.29
2022-08-26T12:10:33.818Z,36.04
2022-08-26T12:13:04.913Z,35.85
2022-08-26T12:15:33.201Z,35.77
2022-08-26T12:18:28.846Z,35.51
2022-08-26T12:21:24.297Z,35.17
2022-08-26T12:23:57.368Z,35.22
2022-08-26T12:26:32.460Z,35.33
2022-08-26T12:29:10.845Z,35.59
2022-08-26T12:31:48.918Z,35.48
2022-08-26T12:34:28.183Z,35.28
2022-08-26T12:37:02.830Z,35.15
2022-08-26T12:39:37.419Z,34.86
2022-08-26T12:42:25.032Z,34.83
2022-08-26T12:44:59.736Z,34.88
2022-08-26T12:47:44.494Z,34.98
2022-08-26T12:50:23.077Z,35.16
2022-08-26T12:53:04.231Z,35.21
2022-08-26T12:55:44.074Z,34.88
2022-08-26T12:58:20.671Z,34.86
2022-08-26T13:01:22.441Z,34.89
2022-08-26T13:03:50.515Z,34.77
2022-08-26T13:06:23.214Z,34.52
2022-08-26T13:09:00.097Z,34.35
2022-08-26T13:11:42.978Z,34.07
2022-08-26T13:14:21.263Z,33.80
2022-08-26T13:16:54.337Z,33.83
2022-08-26T13:19:40.519Z,34.04
2022-08-26T13:22:07.852Z,34.18
2022-08-26T13:24:42.123Z,34.17
2022-08-26T13:27:13.520Z,34.07
2022-08-26T13:29:47.680Z,33.95
2022-08-26T13:32:15.232Z,33.89
2022-08-26T13:34:42.545Z,33.82
2022-08-26T13:37:09.747Z,33.74
2022-08-26T13:39:39.467Z,33.64
2022-08-26T13:42:07.248Z,33.57
2022-08-26T13:44:35.006Z,33.56
2022-08-26T13:47:02.319Z,33.68
2022-08-26T13:49:30.205Z,33.76
2022-08-26T13:51:59.898Z,33.73
2022-08-26T13:54:27.808Z,33.61
2022-08-26T13:56:58.346Z,33.49
2022-08-26T13:59:26.129Z,33.36
2022-08-26T14:02:13.914Z,33.32
2022-08-26T14:04:43.643Z,33.46
2022-08-26T14:07:14.935Z,33.52
2022-08-26T14:09:44.662Z,33.43
2022-08-26T14:12:12.152Z,33.30
2022-08-26T14:14:40.000Z,33.12
2022-08-26T14:17:07.690Z,32.94
2022-08-26T14:19:45.600Z,32.93
2022-08-26T14:22:14.554Z,32.92
2022-08-26T14:24:42.094Z,32.88
2022-08-26T14:27:10.168Z,32.79
2022-08-26T14:29:38.154Z,32.66
2022-08-26T14:32:12.296Z,32.45
2022-08-26T14:34:43.869Z,32.30
2022-08-26T14:37:17.995Z,32.11
2022-08-26T14:40:22.834Z,31.95
2022-08-26T14:43:02.569Z,31.79
2022-08-26T14:48:13.459Z,31.67
2022-08-26T14:50:56.668Z,31.65
2022-08-26T14:53:42.420Z,31.57
2022-08-26T14:56:13.695Z,31.48
2022-08-26T14:58:44.139Z,31.38
2022-08-26T15:01:13.066Z,31.26
2022-08-26T15:03:49.367Z,31.10
2022-08-26T15:06:16.542Z,30.98
2022-08-26T15:08:46.361Z,30.95
2022-08-26T15:11:13.539Z,30.81
2022-08-26T15:13:49.871Z,30.72
2022-08-26T15:16:30.872Z,30.63
2022-08-26T15:19:04.786Z,30.52
2022-08-26T15:21:37.406Z,30.42
2022-08-26T15:24:22.963Z,30.32
2022-08-26T15:26:52.516Z,30.22
2022-08-26T15:29:20.917Z,30.12
2022-08-26T15:31:48.807Z,30.04
2022-08-26T15:34:19.306Z,29.93
2022-08-26T15:36:50.890Z,29.82
2022-08-26T15:39:19.178Z,29.69
2022-08-26T15:41:46.851Z,29.59
2022-08-26T15:44:26.696Z,29.54
2022-08-26T15:46:58.393Z,29.47
2022-08-26T15:49:26.520Z,29.41
2022-08-26T15:51:57.438Z,29.34
2022-08-26T15:54:25.180Z,29.28
2022-08-26T15:56:53.872Z,29.21
2022-08-26T15:59:23.396Z,29.13
2022-08-26T16:02:01.879Z,29.04
2022-08-26T16:04:33.747Z,28.89
2022-08-26T16:07:01.234Z,28.79
2022-08-26T16:09:30.759Z,28.69
2022-08-26T16:11:58.918Z,28.51
2022-08-26T16:14:26.416Z,28.30
2022-08-26T16:16:53.914Z,28.12
2022-08-26T16:19:23.625Z,28.03
2022-08-26T16:21:54.390Z,27.88
2022-08-26T16:24:30.539Z,27.74
2022-08-26T16:27:23.061Z,27.62
2022-08-26T16:29:53.751Z,27.51
2022-08-26T16:32:29.449Z,27.36
2022-08-26T16:35:03.480Z,27.19
2022-08-26T16:37:32.499Z,27.05
2022-08-26T16:40:35.637Z,26.92
2022-08-26T16:43:33.860Z,26.77
2022-08-26T16:46:15.042Z,26.61
2022-08-26T16:48:43.447Z,26.46
2022-08-26T16:51:17.590Z,26.34
2022-08-26T16:53:45.656Z,26.18
2022-08-26T16:56:14.285Z,26.05
2022-08-26T16:58:41.867Z,25.92
2022-08-26T17:01:09.588Z,25.79
2022-08-26T17:03:37.395Z,25.66
2022-08-26T17:06:05.554Z,25.52
2022-08-26T17:08:42.023Z,25.38
2022-08-26T17:11:10.067Z,25.25
2022-08-26T17:13:39.319Z,25.15
2022-08-26T17:16:15.782Z,25.03
2022-08-26T17:18:47.355Z,24.90
2022-08-26T17:21:31.151Z,24.78
2022-08-26T17:24:12.050Z,24.68
2022-08-26T17:26:44.298Z,24.54
2022-08-26T17:30:10.544Z,24.40
2022-08-26T17:32:38.270Z,24.29
2022-08-26T17:35:13.040Z,24.21
2022-08-26T17:38:00.787Z,24.10
2022-08-26T17:40:31.854Z,23.99
2022-08-26T17:42:59.923Z,23.89
2022-08-26T17:45:33.036Z,23.78
2022-08-26T17:48:03.017Z,23.76
2022-08-26T17:50:36.856Z,23.70
2022-08-26T17:53:05.046Z,23.62
2022-08-26T17:55:32.678Z,23.55
2022-08-26T17:58:00.507Z,23.51
2022-08-26T18:00:41.253Z,23.52
2022-08-26T18:03:11.821Z,23.45
2022-08-26T18:05:40.247Z,23.37
2022-08-26T18:08:07.673Z,23.29
2022-08-26T18:10:35.167Z,23.24
2022-08-26T18:13:02.371Z,23.21
2022-08-26T18:15:40.088Z,23.20
2022-08-26T18:18:07.763Z,23.12
2022-08-26T18:20:39.299Z,23.02
2022-08-26T18:23:15.898Z,22.95
2022-08-26T18:25:45.531Z,22.91
2022-08-26T18:28:15.850Z,22.84
2022-08-26T18:30:43.665Z,22.76
2022-08-26T18:33:11.720Z,22.70
2022-08-26T18:35:44.191Z,22.64
2022-08-26T18:38:14.028Z,22.64
2022-08-26T18:40:43.636Z,22.63
2022-08-26T18:43:22.891Z,22.55
2022-08-26T18:46:02.257Z,22.45
2022-08-26T18:48:51.215Z,22.36
2022-08-26T18:51:26.365Z,22.28
2022-08-26T18:53:57.009Z,22.21
2022-08-26T18:56:24.448Z,22.84
2022-08-26T18:58:55.891Z,23.53
2022-08-26T19:01:27.385Z,23.67
2022-08-26T19:03:59.560Z,23.54
2022-08-26T19:06:28.757Z,23.29
2022-08-26T19:08:59.813Z,23.03
2022-08-26T19:11:32.501Z,22.81
2022-08-26T19:14:08.366Z,22.59
2022-08-26T19:16:37.573Z,22.42
2022-08-26T19:19:05.315Z,22.27
2022-08-26T19:21:33.278Z,22.15
2022-08-26T19:24:02.606Z,22.08
2022-08-26T19:26:36.623Z,21.99
2022-08-26T19:29:07.023Z,21.90
2022-08-26T19:31:34.518Z,21.81
2022-08-26T19:34:02.012Z,22.35
2022-08-26T19:36:29.445Z,23.00
2022-08-26T19:38:56.860Z,23.10
2022-08-26T19:41:36.494Z,22.95
2022-08-26T19:44:36.213Z,22.68
2022-08-26T19:47:03.849Z,22.39
2022-08-26T19:49:36.060Z,22.19
2022-08-26T19:52:03.873Z,22.00
2022-08-26T19:54:34.699Z,21.82
2022-08-26T19:57:05.683Z,21.67
2022-08-26T19:59:33.308Z,21.53
2022-08-26T20:02:08.531Z,21.41
2022-08-26T20:04:38.329Z,22.01
2022-08-26T20:07:05.759Z,22.63
2022-08-26T20:09:34.134Z,22.75
2022-08-26T20:12:02.518Z,22.59
2022-08-26T20:14:30.052Z,22.42
2022-08-26T20:16:57.451Z,22.25
2022-08-26T20:19:43.035Z,22.08
2022-08-26T20:22:12.959Z,21.86
2022-08-26T20:24:43.235Z,21.66
2022-08-26T20:27:19.853Z,21.48
2022-08-26T20:29:47.505Z,21.32
2022-08-26T20:32:14.893Z,21.20
2022-08-26T20:34:42.768Z,21.07
2022-08-26T20:37:11.308Z,21.58
2022-08-26T20:39:41.718Z,22.19
2022-08-26T20:42:19.996Z,22.29
2022-08-26T20:44:55.011Z,22.13
2022-08-26T20:47:23.220Z,21.90
2022-08-26T20:50:03.972Z,21.68
2022-08-26T20:52:31.507Z,21.51
2022-08-26T20:54:59.042Z,21.35
2022-08-26T20:57:26.582Z,21.21
2022-08-26T20:59:54.805Z,21.07
2022-08-26T21:02:22.039Z,20.94
2022-08-26T21:04:49.246Z,20.82
2022-08-26T21:07:16.618Z,21.31
2022-08-26T21:09:48.541Z,21.92
2022-08-26T21:12:18.815Z,22.02
2022-08-26T21:14:49.538Z,21.88
2022-08-26T21:17:17.007Z,21.65
2022-08-26T21:19:44.535Z,21.43
2022-08-26T21:22:15.016Z,21.23
2022-08-26T21:24:42.455Z,21.08
2022-08-26T21:27:12.181Z,20.92
2022-08-26T21:29:39.717Z,20.78
2022-08-26T21:32:09.672Z,20.65
2022-08-26T21:34:40.132Z,21.16
2022-08-26T21:37:16.902Z,21.77
2022-08-26T21:39:44.513Z,21.85
2022-08-26T21:42:11.724Z,21.70
2022-08-26T21:44:43.520Z,21.47
2022-08-26T21:47:17.433Z,21.21
2022-08-26T21:49:45.052Z,20.97
2022-08-26T21:52:26.947Z,20.77
2022-08-26T21:55:04.809Z,20.62
2022-08-26T21:57:38.915Z,20.48
2022-08-26T22:00:08.787Z,21.02
2022-08-26T22:02:37.238Z,21.60
2022-08-26T22:06:10.544Z,21.47
2022-08-26T22:08:38.608Z,21.30
2022-08-26T22:11:09.612Z,21.05
2022-08-26T22:13:39.410Z,20.80
2022-08-26T22:16:09.813Z,20.56
2022-08-26T22:18:39.983Z,20.35
2022-08-26T22:21:11.295Z,20.17
2022-08-26T22:23:39.078Z,20.03
2022-08-26T22:26:07.574Z,20.55
2022-08-26T22:28:38.414Z,21.13
2022-08-26T22:31:12.304Z,21.21
2022-08-26T22:33:40.714Z,21.06
2022-08-26T22:36:08.888Z,20.87
2022-08-26T22:38:36.865Z,20.66
2022-08-26T22:41:08.219Z,20.47
2022-08-26T22:43:36.238Z,20.27
2022-08-26T22:46:04.277Z,20.10
2022-08-26T22:48:31.809Z,19.95
2022-08-26T22:51:02.152Z,20.49
2022-08-26T22:53:29.599Z,21.06
2022-08-26T22:56:00.139Z,21.12
2022-08-26T22:58:32.099Z,20.93
2022-08-26T23:01:02.673Z,20.67
2022-08-26T23:03:30.630Z,20.40
2022-08-26T23:05:58.773Z,20.16
2022-08-26T23:08:27.481Z,19.95
2022-08-26T23:10:54.752Z,19.77
2022-08-26T23:13:22.312Z,20.21
2022-08-26T23:15:50.072Z,20.80
2022-08-26T23:18:17.388Z,20.92
2022-08-26T23:20:44.934Z,20.79
2022-08-26T23:23:15.254Z,20.52
2022-08-26T23:25:42.903Z,20.23
2022-08-26T23:28:10.161Z,19.97
2022-08-26T23:30:38.571Z,19.79
2022-08-26T23:33:06.104Z,19.65
2022-08-26T23:35:33.555Z,20.11
2022-08-26T23:38:02.763Z,20.67
2022-08-26T23:40:33.796Z,20.75
2022-08-26T23:43:05.567Z,20.55
2022-08-26T23:45:33.607Z,20.27
2022-08-26T23:48:01.002Z,20.00
2022-08-26T23:50:48.591Z,19.75
2022-08-26T23:53:22.674Z,19.54
2022-08-26T23:55:51.406Z,19.44
2022-08-26T23:58:19.550Z,19.34
